sensor_id;sensor_type;location;lat;lon;timestamp;P1;durP1;ratioP1;P2;durP2;ratioP2
4738;SDS011;2383;48.632;10.156;2024-03-22T00:02:24;13.13;;;7.87;;
4738;SDS011;2383;48.632;10.156;2024-03-22T00:06:25;14.50;;;7.33;;
4738;SDS011;2383;48.632;10.156;2024-03-22T00:10:27;12.20;;;7.70;;
4738;SDS011;2383;48.632;10.156;2024-03-22T00:14:28;10.17;;;7.17;;
4738;SDS011;2383;48.632;10.156;2024-03-22T00:18:29;12.20;;;6.67;;
4738;SDS011;2383;48.632;10.156;2024-03-22T00:22:30;8.50;;;5.93;;
4738;SDS011;2383;48.632;10.156;2024-03-22T00:26:31;9.33;;;5.27;;
4738;SDS011;2383;48.632;10.156;2024-03-22T00:30:33;7.17;;;5.27;;
4738;SDS011;2383;48.632;10.156;2024-03-22T00:34:34;7.30;;;5.27;;
4738;SDS011;2383;48.632;10.156;2024-03-22T00:38:36;9.63;;;5.23;;
4738;SDS011;2383;48.632;10.156;2024-03-22T00:42:37;6.17;;;5.33;;
4738;SDS011;2383;48.632;10.156;2024-03-22T00:46:38;8.67;;;6.03;;
4738;SDS011;2383;48.632;10.156;2024-03-22T00:50:39;8.80;;;6.93;;
4738;SDS011;2383;48.632;10.156;2024-03-22T00:54:40;9.53;;;7.00;;
4738;SDS011;2383;48.632;10.156;2024-03-22T00:58:42;10.17;;;6.93;;
4738;SDS011;2383;48.632;10.156;2024-03-22T01:02:43;9.37;;;7.20;;
4738;SDS011;2383;48.632;10.156;2024-03-22T01:06:45;9.87;;;6.60;;
4738;SDS011;2383;48.632;10.156;2024-03-22T01:10:48;10.00;;;6.57;;
4738;SDS011;2383;48.632;10.156;2024-03-22T01:14:50;9.87;;;6.70;;
4738;SDS011;2383;48.632;10.156;2024-03-22T01:18:51;9.67;;;5.93;;
4738;SDS011;2383;48.632;10.156;2024-03-22T01:22:52;9.47;;;6.33;;
4738;SDS011;2383;48.632;10.156;2024-03-22T01:26:53;8.43;;;6.23;;
4738;SDS011;2383;48.632;10.156;2024-03-22T01:30:56;10.00;;;6.37;;
4738;SDS011;2383;48.632;10.156;2024-03-22T01:34:57;8.23;;;6.07;;
4738;SDS011;2383;48.632;10.156;2024-03-22T01:38:58;12.90;;;6.47;;
4738;SDS011;2383;48.632;10.156;2024-03-22T01:43:00;9.73;;;6.93;;
4738;SDS011;2383;48.632;10.156;2024-03-22T01:47:01;9.93;;;6.40;;
4738;SDS011;2383;48.632;10.156;2024-03-22T01:51:03;8.83;;;6.43;;
4738;SDS011;2383;48.632;10.156;2024-03-22T01:55:06;12.27;;;6.63;;
4738;SDS011;2383;48.632;10.156;2024-03-22T01:59:08;9.33;;;6.93;;
4738;SDS011;2383;48.632;10.156;2024-03-22T02:03:09;10.43;;;6.30;;
4738;SDS011;2383;48.632;10.156;2024-03-22T02:07:10;8.77;;;6.33;;
4738;SDS011;2383;48.632;10.156;2024-03-22T02:11:12;11.67;;;6.47;;
4738;SDS011;2383;48.632;10.156;2024-03-22T02:15:14;9.53;;;6.20;;
4738;SDS011;2383;48.632;10.156;2024-03-22T02:19:15;8.57;;;5.83;;
4738;SDS011;2383;48.632;10.156;2024-03-22T02:23:16;8.87;;;6.70;;
4738;SDS011;2383;48.632;10.156;2024-03-22T02:27:18;8.70;;;5.90;;
4738;SDS011;2383;48.632;10.156;2024-03-22T02:31:19;9.47;;;6.63;;
4738;SDS011;2383;48.632;10.156;2024-03-22T02:35:20;9.33;;;6.63;;
4738;SDS011;2383;48.632;10.156;2024-03-22T02:39:22;8.50;;;6.77;;
4738;SDS011;2383;48.632;10.156;2024-03-22T02:43:23;10.03;;;7.70;;
4738;SDS011;2383;48.632;10.156;2024-03-22T02:47:24;11.33;;;7.17;;
4738;SDS011;2383;48.632;10.156;2024-03-22T02:51:25;10.13;;;7.33;;
4738;SDS011;2383;48.632;10.156;2024-03-22T02:55:26;9.07;;;6.33;;
4738;SDS011;2383;48.632;10.156;2024-03-22T02:59:27;12.73;;;6.57;;
4738;SDS011;2383;48.632;10.156;2024-03-22T03:03:29;8.73;;;6.33;;
4738;SDS011;2383;48.632;10.156;2024-03-22T03:07:30;9.43;;;6.80;;
4738;SDS011;2383;48.632;10.156;2024-03-22T03:11:31;14.27;;;7.87;;
4738;SDS011;2383;48.632;10.156;2024-03-22T03:15:32;11.50;;;7.50;;
4738;SDS011;2383;48.632;10.156;2024-03-22T03:19:33;8.93;;;6.80;;
4738;SDS011;2383;48.632;10.156;2024-03-22T03:23:34;10.53;;;7.13;;
4738;SDS011;2383;48.632;10.156;2024-03-22T03:27:35;12.50;;;7.90;;
4738;SDS011;2383;48.632;10.156;2024-03-22T03:31:36;11.93;;;7.33;;
4738;SDS011;2383;48.632;10.156;2024-03-22T03:35:38;11.43;;;8.07;;
4738;SDS011;2383;48.632;10.156;2024-03-22T03:39:39;12.70;;;7.10;;
4738;SDS011;2383;48.632;10.156;2024-03-22T03:43:40;11.03;;;7.27;;
4738;SDS011;2383;48.632;10.156;2024-03-22T03:47:41;19.73;;;8.27;;
4738;SDS011;2383;48.632;10.156;2024-03-22T03:51:42;12.17;;;7.73;;
4738;SDS011;2383;48.632;10.156;2024-03-22T03:55:43;15.20;;;7.30;;
4738;SDS011;2383;48.632;10.156;2024-03-22T03:59:45;12.67;;;7.83;;
4738;SDS011;2383;48.632;10.156;2024-03-22T04:03:46;13.57;;;8.70;;
4738;SDS011;2383;48.632;10.156;2024-03-22T04:07:49;13.80;;;7.97;;
4738;SDS011;2383;48.632;10.156;2024-03-22T04:11:50;11.23;;;7.83;;
4738;SDS011;2383;48.632;10.156;2024-03-22T04:15:52;11.97;;;7.73;;
4738;SDS011;2383;48.632;10.156;2024-03-22T04:19:53;12.23;;;7.47;;
4738;SDS011;2383;48.632;10.156;2024-03-22T04:23:54;11.47;;;7.70;;
4738;SDS011;2383;48.632;10.156;2024-03-22T04:27:55;11.93;;;8.17;;
4738;SDS011;2383;48.632;10.156;2024-03-22T04:31:56;12.30;;;8.17;;
4738;SDS011;2383;48.632;10.156;2024-03-22T04:35:58;12.40;;;7.77;;
4738;SDS011;2383;48.632;10.156;2024-03-22T04:40:00;13.73;;;9.53;;
4738;SDS011;2383;48.632;10.156;2024-03-22T04:44:01;21.57;;;11.30;;
4738;SDS011;2383;48.632;10.156;2024-03-22T04:48:03;13.93;;;9.77;;
4738;SDS011;2383;48.632;10.156;2024-03-22T04:52:05;15.40;;;10.37;;
4738;SDS011;2383;48.632;10.156;2024-03-22T04:56:06;14.87;;;9.70;;
4738;SDS011;2383;48.632;10.156;2024-03-22T05:00:08;15.53;;;10.40;;
4738;SDS011;2383;48.632;10.156;2024-03-22T05:04:09;14.63;;;9.77;;
4738;SDS011;2383;48.632;10.156;2024-03-22T05:08:10;16.07;;;10.17;;
4738;SDS011;2383;48.632;10.156;2024-03-22T05:12:12;18.07;;;10.50;;
4738;SDS011;2383;48.632;10.156;2024-03-22T05:16:13;15.83;;;11.07;;
4738;SDS011;2383;48.632;10.156;2024-03-22T05:20:15;14.83;;;10.07;;
4738;SDS011;2383;48.632;10.156;2024-03-22T05:24:16;13.57;;;9.70;;
4738;SDS011;2383;48.632;10.156;2024-03-22T05:28:18;14.50;;;9.77;;
4738;SDS011;2383;48.632;10.156;2024-03-22T05:32:19;22.70;;;14.20;;
4738;SDS011;2383;48.632;10.156;2024-03-22T05:36:20;22.20;;;14.07;;
4738;SDS011;2383;48.632;10.156;2024-03-22T05:40:21;30.50;;;18.40;;
4738;SDS011;2383;48.632;10.156;2024-03-22T05:44:23;38.43;;;23.90;;
4738;SDS011;2383;48.632;10.156;2024-03-22T05:48:24;28.93;;;18.10;;
4738;SDS011;2383;48.632;10.156;2024-03-22T05:52:27;31.77;;;19.00;;
4738;SDS011;2383;48.632;10.156;2024-03-22T05:56:28;30.77;;;19.70;;
4738;SDS011;2383;48.632;10.156;2024-03-22T06:00:29;31.47;;;17.73;;
4738;SDS011;2383;48.632;10.156;2024-03-22T06:04:31;23.20;;;14.20;;
4738;SDS011;2383;48.632;10.156;2024-03-22T06:08:32;14.20;;;9.87;;
4738;SDS011;2383;48.632;10.156;2024-03-22T06:12:35;18.97;;;11.80;;
4738;SDS011;2383;48.632;10.156;2024-03-22T06:16:36;20.23;;;12.23;;
4738;SDS011;2383;48.632;10.156;2024-03-22T06:20:37;28.10;;;16.47;;
4738;SDS011;2383;48.632;10.156;2024-03-22T06:24:38;29.23;;;16.17;;
4738;SDS011;2383;48.632;10.156;2024-03-22T06:28:40;24.40;;;15.03;;
4738;SDS011;2383;48.632;10.156;2024-03-22T06:32:41;23.50;;;15.20;;
4738;SDS011;2383;48.632;10.156;2024-03-22T06:36:42;22.30;;;14.60;;
4738;SDS011;2383;48.632;10.156;2024-03-22T06:40:44;24.27;;;16.00;;
4738;SDS011;2383;48.632;10.156;2024-03-22T06:44:45;24.50;;;16.03;;
4738;SDS011;2383;48.632;10.156;2024-03-22T06:48:46;26.17;;;16.27;;
4738;SDS011;2383;48.632;10.156;2024-03-22T06:52:47;25.27;;;17.03;;
4738;SDS011;2383;48.632;10.156;2024-03-22T06:56:48;24.07;;;15.37;;
4738;SDS011;2383;48.632;10.156;2024-03-22T07:00:49;25.63;;;16.37;;
4738;SDS011;2383;48.632;10.156;2024-03-22T07:04:51;24.10;;;14.73;;
4738;SDS011;2383;48.632;10.156;2024-03-22T07:08:52;26.50;;;14.07;;
4738;SDS011;2383;48.632;10.156;2024-03-22T07:12:56;22.30;;;13.53;;
4738;SDS011;2383;48.632;10.156;2024-03-22T07:16:57;19.13;;;13.30;;
4738;SDS011;2383;48.632;10.156;2024-03-22T07:20:59;18.20;;;11.83;;
4738;SDS011;2383;48.632;10.156;2024-03-22T07:25:01;19.63;;;12.73;;
4738;SDS011;2383;48.632;10.156;2024-03-22T07:29:03;19.60;;;12.93;;
4738;SDS011;2383;48.632;10.156;2024-03-22T07:33:04;21.20;;;14.87;;
4738;SDS011;2383;48.632;10.156;2024-03-22T07:37:05;22.63;;;13.50;;
4738;SDS011;2383;48.632;10.156;2024-03-22T07:41:06;21.90;;;12.70;;
4738;SDS011;2383;48.632;10.156;2024-03-22T07:45:08;21.53;;;13.53;;
4738;SDS011;2383;48.632;10.156;2024-03-22T07:49:09;24.43;;;12.70;;
4738;SDS011;2383;48.632;10.156;2024-03-22T07:53:10;24.10;;;15.70;;
4738;SDS011;2383;48.632;10.156;2024-03-22T07:57:14;27.37;;;12.97;;
4738;SDS011;2383;48.632;10.156;2024-03-22T08:01:15;18.07;;;13.00;;
4738;SDS011;2383;48.632;10.156;2024-03-22T08:05:17;19.30;;;13.57;;
4738;SDS011;2383;48.632;10.156;2024-03-22T08:09:20;20.70;;;13.67;;
4738;SDS011;2383;48.632;10.156;2024-03-22T08:13:20;18.07;;;13.03;;
4738;SDS011;2383;48.632;10.156;2024-03-22T08:17:22;19.60;;;12.30;;
4738;SDS011;2383;48.632;10.156;2024-03-22T08:21:23;19.73;;;12.50;;
4738;SDS011;2383;48.632;10.156;2024-03-22T08:25:25;17.73;;;13.73;;
4738;SDS011;2383;48.632;10.156;2024-03-22T08:29:26;18.90;;;13.83;;
4738;SDS011;2383;48.632;10.156;2024-03-22T08:33:27;17.05;;;12.45;;
4738;SDS011;2383;48.632;10.156;2024-03-22T08:37:28;20.85;;;12.60;;
4738;SDS011;2383;48.632;10.156;2024-03-22T08:41:29;20.33;;;12.30;;
4738;SDS011;2383;48.632;10.156;2024-03-22T08:45:30;15.63;;;11.60;;
4738;SDS011;2383;48.632;10.156;2024-03-22T08:49:31;14.48;;;11.07;;
4738;SDS011;2383;48.632;10.156;2024-03-22T08:53:32;18.73;;;12.98;;
4738;SDS011;2383;48.632;10.156;2024-03-22T08:57:33;13.30;;;9.73;;
4738;SDS011;2383;48.632;10.156;2024-03-22T09:01:34;15.32;;;9.63;;
4738;SDS011;2383;48.632;10.156;2024-03-22T09:05:35;13.05;;;8.80;;
4738;SDS011;2383;48.632;10.156;2024-03-22T09:09:36;15.33;;;9.07;;
4738;SDS011;2383;48.632;10.156;2024-03-22T09:13:38;12.80;;;8.52;;
4738;SDS011;2383;48.632;10.156;2024-03-22T09:17:39;12.25;;;8.45;;
4738;SDS011;2383;48.632;10.156;2024-03-22T09:21:40;12.90;;;7.78;;
4738;SDS011;2383;48.632;10.156;2024-03-22T09:25:41;10.90;;;7.70;;
4738;SDS011;2383;48.632;10.156;2024-03-22T09:29:42;11.25;;;7.80;;
4738;SDS011;2383;48.632;10.156;2024-03-22T09:33:44;14.93;;;7.85;;
4738;SDS011;2383;48.632;10.156;2024-03-22T09:37:45;12.40;;;8.43;;
4738;SDS011;2383;48.632;10.156;2024-03-22T09:41:47;11.50;;;7.40;;
4738;SDS011;2383;48.632;10.156;2024-03-22T09:45:49;11.82;;;7.72;;
4738;SDS011;2383;48.632;10.156;2024-03-22T09:49:50;11.82;;;7.60;;
4738;SDS011;2383;48.632;10.156;2024-03-22T09:53:51;10.15;;;7.00;;
4738;SDS011;2383;48.632;10.156;2024-03-22T09:57:53;15.18;;;7.40;;
4738;SDS011;2383;48.632;10.156;2024-03-22T10:01:55;11.88;;;7.88;;
4738;SDS011;2383;48.632;10.156;2024-03-22T10:05:59;9.80;;;6.72;;
4738;SDS011;2383;48.632;10.156;2024-03-22T10:10:00;9.90;;;7.13;;
4738;SDS011;2383;48.632;10.156;2024-03-22T10:14:01;10.55;;;6.47;;
4738;SDS011;2383;48.632;10.156;2024-03-22T10:18:03;7.80;;;6.32;;
4738;SDS011;2383;48.632;10.156;2024-03-22T10:22:05;10.48;;;6.13;;
4738;SDS011;2383;48.632;10.156;2024-03-22T10:26:06;12.25;;;6.65;;
4738;SDS011;2383;48.632;10.156;2024-03-22T10:30:10;10.73;;;6.57;;
4738;SDS011;2383;48.632;10.156;2024-03-22T10:34:16;10.80;;;7.38;;
4738;SDS011;2383;48.632;10.156;2024-03-22T10:38:20;8.52;;;6.47;;
4738;SDS011;2383;48.632;10.156;2024-03-22T10:42:22;8.40;;;6.45;;
4738;SDS011;2383;48.632;10.156;2024-03-22T10:46:29;9.52;;;6.82;;
4738;SDS011;2383;48.632;10.156;2024-03-22T10:50:31;9.18;;;6.47;;
4738;SDS011;2383;48.632;10.156;2024-03-22T10:54:35;10.63;;;6.93;;
4738;SDS011;2383;48.632;10.156;2024-03-22T10:58:40;11.75;;;6.90;;
4738;SDS011;2383;48.632;10.156;2024-03-22T11:02:43;9.23;;;7.15;;
4738;SDS011;2383;48.632;10.156;2024-03-22T11:06:49;8.65;;;6.25;;
4738;SDS011;2383;48.632;10.156;2024-03-22T11:10:50;8.95;;;6.45;;
4738;SDS011;2383;48.632;10.156;2024-03-22T11:14:52;9.43;;;6.72;;
4738;SDS011;2383;48.632;10.156;2024-03-22T11:18:54;7.82;;;5.80;;
4738;SDS011;2383;48.632;10.156;2024-03-22T11:22:55;9.93;;;6.55;;
4738;SDS011;2383;48.632;10.156;2024-03-22T11:26:57;10.25;;;6.43;;
4738;SDS011;2383;48.632;10.156;2024-03-22T11:30:58;8.98;;;6.28;;
4738;SDS011;2383;48.632;10.156;2024-03-22T11:34:59;8.15;;;5.38;;
4738;SDS011;2383;48.632;10.156;2024-03-22T11:39:00;7.57;;;5.32;;
4738;SDS011;2383;48.632;10.156;2024-03-22T11:43:01;8.18;;;4.75;;
4738;SDS011;2383;48.632;10.156;2024-03-22T11:47:03;10.77;;;5.88;;
4738;SDS011;2383;48.632;10.156;2024-03-22T11:51:05;9.00;;;6.38;;
4738;SDS011;2383;48.632;10.156;2024-03-22T11:55:07;8.85;;;5.10;;
4738;SDS011;2383;48.632;10.156;2024-03-22T11:59:08;8.88;;;5.80;;
4738;SDS011;2383;48.632;10.156;2024-03-22T12:03:09;9.15;;;5.65;;
4738;SDS011;2383;48.632;10.156;2024-03-22T12:07:15;9.60;;;5.13;;
4738;SDS011;2383;48.632;10.156;2024-03-22T12:11:17;7.60;;;5.35;;
4738;SDS011;2383;48.632;10.156;2024-03-22T12:15:18;7.82;;;5.22;;
4738;SDS011;2383;48.632;10.156;2024-03-22T12:19:20;5.80;;;4.85;;
4738;SDS011;2383;48.632;10.156;2024-03-22T12:23:21;8.02;;;5.22;;
4738;SDS011;2383;48.632;10.156;2024-03-22T12:27:22;12.95;;;5.18;;
4738;SDS011;2383;48.632;10.156;2024-03-22T12:31:23;6.20;;;4.25;;
4738;SDS011;2383;48.632;10.156;2024-03-22T12:35:24;8.68;;;4.55;;
4738;SDS011;2383;48.632;10.156;2024-03-22T12:39:26;6.25;;;4.35;;
4738;SDS011;2383;48.632;10.156;2024-03-22T12:43:27;8.00;;;4.40;;
4738;SDS011;2383;48.632;10.156;2024-03-22T12:47:28;7.85;;;4.63;;
4738;SDS011;2383;48.632;10.156;2024-03-22T12:51:29;8.85;;;4.15;;
4738;SDS011;2383;48.632;10.156;2024-03-22T12:55:30;5.55;;;4.05;;
4738;SDS011;2383;48.632;10.156;2024-03-22T12:59:31;6.63;;;4.07;;
4738;SDS011;2383;48.632;10.156;2024-03-22T13:03:32;6.72;;;3.65;;
4738;SDS011;2383;48.632;10.156;2024-03-22T13:07:34;6.65;;;3.95;;
4738;SDS011;2383;48.632;10.156;2024-03-22T13:11:35;7.38;;;3.88;;
4738;SDS011;2383;48.632;10.156;2024-03-22T13:15:37;5.13;;;3.33;;
4738;SDS011;2383;48.632;10.156;2024-03-22T13:19:39;6.20;;;4.00;;
4738;SDS011;2383;48.632;10.156;2024-03-22T13:23:40;8.65;;;4.25;;
4738;SDS011;2383;48.632;10.156;2024-03-22T13:27:41;7.45;;;4.70;;
4738;SDS011;2383;48.632;10.156;2024-03-22T13:31:43;6.28;;;4.50;;
4738;SDS011;2383;48.632;10.156;2024-03-22T13:35:44;9.30;;;4.60;;
4738;SDS011;2383;48.632;10.156;2024-03-22T13:39:49;9.30;;;4.88;;
4738;SDS011;2383;48.632;10.156;2024-03-22T13:43:50;5.78;;;4.30;;
4738;SDS011;2383;48.632;10.156;2024-03-22T13:47:51;17.13;;;7.53;;
4738;SDS011;2383;48.632;10.156;2024-03-22T13:51:52;9.98;;;7.15;;
4738;SDS011;2383;48.632;10.156;2024-03-22T13:55:53;12.65;;;6.78;;
4738;SDS011;2383;48.632;10.156;2024-03-22T13:59:54;11.45;;;6.05;;
4738;SDS011;2383;48.632;10.156;2024-03-22T14:03:56;9.70;;;6.90;;
4738;SDS011;2383;48.632;10.156;2024-03-22T14:07:58;10.57;;;6.60;;
4738;SDS011;2383;48.632;10.156;2024-03-22T14:11:59;9.75;;;6.50;;
4738;SDS011;2383;48.632;10.156;2024-03-22T14:16:01;7.00;;;5.55;;
4738;SDS011;2383;48.632;10.156;2024-03-22T14:20:02;7.63;;;5.72;;
4738;SDS011;2383;48.632;10.156;2024-03-22T14:24:10;13.65;;;6.15;;
4738;SDS011;2383;48.632;10.156;2024-03-22T14:28:12;7.00;;;5.65;;
4738;SDS011;2383;48.632;10.156;2024-03-22T14:32:13;8.85;;;5.53;;
4738;SDS011;2383;48.632;10.156;2024-03-22T14:36:14;9.38;;;5.88;;
4738;SDS011;2383;48.632;10.156;2024-03-22T14:40:15;9.30;;;6.22;;
4738;SDS011;2383;48.632;10.156;2024-03-22T14:44:17;10.02;;;5.82;;
4738;SDS011;2383;48.632;10.156;2024-03-22T14:48:22;6.47;;;4.88;;
4738;SDS011;2383;48.632;10.156;2024-03-22T14:52:24;6.47;;;5.30;;
4738;SDS011;2383;48.632;10.156;2024-03-22T14:56:24;7.95;;;5.07;;
4738;SDS011;2383;48.632;10.156;2024-03-22T15:00:25;6.65;;;5.40;;
4738;SDS011;2383;48.632;10.156;2024-03-22T15:04:26;10.73;;;4.88;;
4738;SDS011;2383;48.632;10.156;2024-03-22T15:08:28;6.03;;;4.63;;
4738;SDS011;2383;48.632;10.156;2024-03-22T15:12:30;5.60;;;5.00;;
4738;SDS011;2383;48.632;10.156;2024-03-22T15:16:31;9.40;;;5.80;;
4738;SDS011;2383;48.632;10.156;2024-03-22T15:20:33;8.23;;;4.75;;
4738;SDS011;2383;48.632;10.156;2024-03-22T15:24:35;10.77;;;4.53;;
4738;SDS011;2383;48.632;10.156;2024-03-22T15:28:36;14.40;;;5.13;;
4738;SDS011;2383;48.632;10.156;2024-03-22T15:32:37;8.05;;;4.70;;
4738;SDS011;2383;48.632;10.156;2024-03-22T15:36:39;7.07;;;5.13;;
4738;SDS011;2383;48.632;10.156;2024-03-22T15:40:40;6.00;;;3.65;;
4738;SDS011;2383;48.632;10.156;2024-03-22T15:44:41;7.72;;;4.18;;
4738;SDS011;2383;48.632;10.156;2024-03-22T15:48:42;8.45;;;4.47;;
4738;SDS011;2383;48.632;10.156;2024-03-22T15:52:45;6.10;;;4.78;;
4738;SDS011;2383;48.632;10.156;2024-03-22T15:56:46;5.38;;;3.90;;
4738;SDS011;2383;48.632;10.156;2024-03-22T16:00:47;7.50;;;4.60;;
4738;SDS011;2383;48.632;10.156;2024-03-22T16:04:49;11.60;;;5.03;;
4738;SDS011;2383;48.632;10.156;2024-03-22T16:08:50;7.07;;;4.32;;
4738;SDS011;2383;48.632;10.156;2024-03-22T16:12:52;5.10;;;3.92;;
4738;SDS011;2383;48.632;10.156;2024-03-22T16:16:53;11.15;;;4.30;;
4738;SDS011;2383;48.632;10.156;2024-03-22T16:20:54;7.00;;;4.03;;
4738;SDS011;2383;48.632;10.156;2024-03-22T16:24:55;7.72;;;3.88;;
4738;SDS011;2383;48.632;10.156;2024-03-22T16:28:56;6.80;;;3.83;;
4738;SDS011;2383;48.632;10.156;2024-03-22T16:32:58;7.25;;;3.70;;
4738;SDS011;2383;48.632;10.156;2024-03-22T16:36:59;8.55;;;4.00;;
4738;SDS011;2383;48.632;10.156;2024-03-22T16:41:00;10.40;;;3.95;;
4738;SDS011;2383;48.632;10.156;2024-03-22T16:45:01;9.73;;;3.90;;
4738;SDS011;2383;48.632;10.156;2024-03-22T16:49:03;6.00;;;3.50;;
4738;SDS011;2383;48.632;10.156;2024-03-22T16:53:04;6.00;;;3.80;;
4738;SDS011;2383;48.632;10.156;2024-03-22T16:57:05;8.48;;;4.45;;
4738;SDS011;2383;48.632;10.156;2024-03-22T17:01:06;7.63;;;4.78;;
4738;SDS011;2383;48.632;10.156;2024-03-22T17:05:11;9.95;;;6.43;;
4738;SDS011;2383;48.632;10.156;2024-03-22T17:09:12;10.68;;;6.18;;
4738;SDS011;2383;48.632;10.156;2024-03-22T17:13:13;9.60;;;6.45;;
4738;SDS011;2383;48.632;10.156;2024-03-22T17:17:14;10.93;;;6.60;;
4738;SDS011;2383;48.632;10.156;2024-03-22T17:21:17;10.38;;;5.25;;
4738;SDS011;2383;48.632;10.156;2024-03-22T17:25:18;8.63;;;3.20;;
4738;SDS011;2383;48.632;10.156;2024-03-22T17:29:19;9.32;;;3.30;;
4738;SDS011;2383;48.632;10.156;2024-03-22T17:33:21;5.45;;;2.70;;
4738;SDS011;2383;48.632;10.156;2024-03-22T17:37:22;5.97;;;3.28;;
4738;SDS011;2383;48.632;10.156;2024-03-22T17:41:23;10.45;;;4.75;;
4738;SDS011;2383;48.632;10.156;2024-03-22T17:45:24;11.40;;;4.53;;
4738;SDS011;2383;48.632;10.156;2024-03-22T17:49:25;6.68;;;3.75;;
4738;SDS011;2383;48.632;10.156;2024-03-22T17:53:26;7.68;;;4.25;;
4738;SDS011;2383;48.632;10.156;2024-03-22T17:57:27;7.68;;;3.47;;
4738;SDS011;2383;48.632;10.156;2024-03-22T18:01:30;8.48;;;5.10;;
4738;SDS011;2383;48.632;10.156;2024-03-22T18:05:32;9.95;;;4.43;;
4738;SDS011;2383;48.632;10.156;2024-03-22T18:09:33;4.68;;;4.10;;
4738;SDS011;2383;48.632;10.156;2024-03-22T18:13:34;6.80;;;4.80;;
4738;SDS011;2383;48.632;10.156;2024-03-22T18:17:37;9.05;;;6.07;;
4738;SDS011;2383;48.632;10.156;2024-03-22T18:21:39;8.40;;;5.95;;
4738;SDS011;2383;48.632;10.156;2024-03-22T18:25:45;9.73;;;6.53;;
4738;SDS011;2383;48.632;10.156;2024-03-22T18:29:48;8.65;;;5.35;;
4738;SDS011;2383;48.632;10.156;2024-03-22T18:33:49;6.40;;;4.90;;
4738;SDS011;2383;48.632;10.156;2024-03-22T18:37:50;8.65;;;6.70;;
4738;SDS011;2383;48.632;10.156;2024-03-22T18:41:51;10.60;;;6.60;;
4738;SDS011;2383;48.632;10.156;2024-03-22T18:45:52;20.35;;;13.18;;
4738;SDS011;2383;48.632;10.156;2024-03-22T18:49:54;21.90;;;15.32;;
4738;SDS011;2383;48.632;10.156;2024-03-22T18:53:56;20.50;;;11.13;;
4738;SDS011;2383;48.632;10.156;2024-03-22T18:57:59;12.38;;;8.18;;
4738;SDS011;2383;48.632;10.156;2024-03-22T19:02:01;15.18;;;8.45;;
4738;SDS011;2383;48.632;10.156;2024-03-22T19:06:02;10.82;;;7.72;;
4738;SDS011;2383;48.632;10.156;2024-03-22T19:10:07;11.50;;;7.75;;
4738;SDS011;2383;48.632;10.156;2024-03-22T19:14:09;15.57;;;9.07;;
4738;SDS011;2383;48.632;10.156;2024-03-22T19:18:10;22.00;;;9.23;;
4738;SDS011;2383;48.632;10.156;2024-03-22T19:22:12;14.30;;;7.50;;
4738;SDS011;2383;48.632;10.156;2024-03-22T19:26:13;16.40;;;8.93;;
4738;SDS011;2383;48.632;10.156;2024-03-22T19:30:14;14.68;;;10.15;;
4738;SDS011;2383;48.632;10.156;2024-03-22T19:34:16;12.27;;;9.15;;
4738;SDS011;2383;48.632;10.156;2024-03-22T19:38:17;21.63;;;12.88;;
4738;SDS011;2383;48.632;10.156;2024-03-22T19:42:19;13.00;;;7.78;;
4738;SDS011;2383;48.632;10.156;2024-03-22T19:46:20;14.00;;;8.20;;
4738;SDS011;2383;48.632;10.156;2024-03-22T19:50:22;14.50;;;7.93;;
4738;SDS011;2383;48.632;10.156;2024-03-22T19:54:23;20.88;;;10.50;;
4738;SDS011;2383;48.632;10.156;2024-03-22T19:58:24;12.07;;;7.63;;
4738;SDS011;2383;48.632;10.156;2024-03-22T20:02:26;12.85;;;8.77;;
4738;SDS011;2383;48.632;10.156;2024-03-22T20:06:28;12.00;;;8.18;;
4738;SDS011;2383;48.632;10.156;2024-03-22T20:10:29;13.55;;;8.57;;
4738;SDS011;2383;48.632;10.156;2024-03-22T20:14:31;12.05;;;7.82;;
4738;SDS011;2383;48.632;10.156;2024-03-22T20:18:33;15.27;;;9.38;;
4738;SDS011;2383;48.632;10.156;2024-03-22T20:22:35;14.38;;;10.05;;
4738;SDS011;2383;48.632;10.156;2024-03-22T20:26:36;21.13;;;12.40;;
4738;SDS011;2383;48.632;10.156;2024-03-22T20:30:37;15.65;;;9.23;;
4738;SDS011;2383;48.632;10.156;2024-03-22T20:34:38;16.83;;;10.40;;
